Terminal Aerodrome Forecast
Issued by NWS Pittsburgh, PA

Current Version | Previous Version | Text Only | Print | Product List | Glossary Off
Versions: 1 2 3 4 5 6 7 8 9 10 11 12 13 14 15 16 17 18 19 20 21 22 23 24 25 26 27 28

000
FTUS41 KPBZ 251700
TAFPIT
TAF
KPIT 251739Z 2518/2624 31007KT P6SM SCT030 BKN250
     FM260000 35003KT P6SM OVC100
     FM261200 02008KT 6SM -SHSN BKN025
     FM261500 02010KT 3SM -SHSN BKN015=

USA.gov is the U.S. government's official web portal to all federal, state and local government web resources and services.